Hampton, VA (23668)

6:50 PM EST on February 06, 2016 (GMT -0500)
East Hampton | | Change Station
CLOSE
Current Station
Personal Weather Station
Location: Hampton, VA
Elevation: 0 ft
Nearby Weather Stations

Elev 0 ft 37.03 °N, 76.34 °W | Updated 10 seconds ago

Clear
Clear
38.1 °F
Feels Like 38 °F
N
0.0
Wind Variable Wind from NE
Gusts 0.0 mph

Today
High -- | Low -- °F
--% Chance of Precip.
Yesterday
High -- | Low -- °F
Precip. -- in
Pressure 30.36 in
Visibility 10.0 miles
Clouds Clear
Windchill 38 °F
Dew Point 11 °F
Humidity 32%
Rainfall 0.00 in
Snow Depth Not available.
7:03 AM 5:35 PM
Waning Crescent, 3% visible
METAR KLFI 062258Z AUTO 14002KT 10SM CLR 04/M05 A3034 RMK AO2 SLP281 T00371055 $
Pressure 30.36 in
Visibility 10.0 miles
Clouds Clear
Windchill 38 °F
Dew Point 11 °F
Humidity 32%
Rainfall 0.00 in
Snow Depth Not available.
7:03 AM 5:35 PM
Waning Crescent, 3% visible
METAR KLFI 062258Z AUTO 14002KT 10SM CLR 04/M05 A3034 RMK AO2 SLP281 T00371055 $

10-Day Weather Forecast

Almanac

Astronomy

Feb. 06, 2016 Rise Set
Actual Time
Civil Twilight
Nautical Twilight
Astronomical Twilight
Moon
Length of Visible Light
Length of Day
Tomorrow will be .
, % of the Moon is Illuminated

Today's Extremes

State Highs State Lows

Community

WunderPhotos

Upload Photos

1,891,098 photos uploaded!

WunderBlog® & News

Nearby

Air Quality

  Air Quality AQ Index Pollutant
Not available.

Snow Depth

Station Depth Elevation

Earthquake Activity

City Distance Mag. Time & Date
Minimum magnitude displayed is 2.5.

Coastal Water Temperatures

Place Temperature

Stations

Nearby Weather Stations

Station Location Temp. Windchill Dew Point Humidity Wind Precip. Elev Updated Type
                   

Watches & Warnings

There are currently no watches in effect.